createdAt,value
2022-09-17T00:00:56.020Z,12.41
2022-09-17T00:02:58.971Z,12.35
2022-09-17T00:05:03.374Z,12.34
2022-09-17T00:07:06.751Z,12.34
2022-09-17T00:09:10.300Z,12.35
2022-09-17T00:11:14.872Z,12.37
2022-09-17T00:13:17.823Z,12.38
2022-09-17T00:15:20.769Z,12.40
2022-09-17T00:17:23.774Z,12.41
2022-09-17T00:19:26.737Z,12.37
2022-09-17T00:21:31.719Z,12.40
2022-09-17T00:23:34.722Z,12.30
2022-09-17T00:25:39.245Z,12.28
2022-09-17T00:27:42.240Z,12.29
2022-09-17T00:29:45.662Z,12.30
2022-09-17T00:31:48.807Z,12.32
2022-09-17T00:33:52.519Z,12.34
2022-09-17T00:35:59.414Z,12.28
2022-09-17T00:38:03.748Z,12.29
2022-09-17T00:40:07.887Z,12.31
2022-09-17T00:42:11.157Z,12.31
2022-09-17T00:44:43.014Z,12.36
2022-09-17T00:46:46.369Z,12.38
2022-09-17T00:48:49.492Z,12.38
2022-09-17T00:50:53.698Z,12.38
2022-09-17T00:53:00.603Z,12.40
2022-09-17T00:55:10.627Z,12.43
2022-09-17T00:57:13.644Z,12.44
2022-09-17T00:59:16.744Z,12.44
2022-09-17T01:01:20.106Z,12.48
2022-09-17T01:03:23.160Z,12.52
2022-09-17T01:05:32.098Z,12.52
2022-09-17T01:08:00.133Z,12.53
2022-09-17T01:10:21.153Z,12.53
2022-09-17T01:12:41.262Z,12.53
2022-09-17T01:14:52.059Z,12.54
2022-09-17T01:17:00.528Z,12.53
2022-09-17T01:19:14.149Z,12.55
2022-09-17T01:21:46.962Z,12.53
2022-09-17T01:24:07.602Z,12.52
2022-09-17T01:26:30.528Z,12.51
2022-09-17T01:28:43.478Z,12.50
2022-09-17T01:31:06.292Z,12.50
2022-09-17T01:33:13.470Z,12.47
2022-09-17T01:35:21.096Z,12.44
2022-09-17T01:37:30.719Z,12.41
2022-09-17T01:39:43.296Z,12.40
2022-09-17T01:41:52.931Z,12.39
2022-09-17T01:44:00.114Z,12.37
2022-09-17T01:46:11.279Z,12.35
2022-09-17T01:48:18.064Z,12.33
2022-09-17T01:50:25.547Z,12.31
2022-09-17T01:52:28.958Z,12.29
2022-09-17T01:54:38.074Z,12.25
2022-09-17T01:56:46.052Z,12.24
2022-09-17T01:58:53.589Z,12.23
2022-09-17T02:00:59.914Z,12.21
2022-09-17T02:03:08.222Z,12.16
2022-09-17T02:05:16.229Z,12.11
2022-09-17T02:07:21.218Z,12.04
2022-09-17T02:09:26.678Z,12.02
2022-09-17T02:11:29.805Z,12.01
2022-09-17T02:13:34.539Z,12.04
2022-09-17T02:15:40.797Z,12.05
2022-09-17T02:17:47.627Z,12.05
2022-09-17T02:19:53.727Z,12.06
2022-09-17T02:22:02.094Z,12.08
2022-09-17T02:24:09.836Z,12.09
2022-09-17T02:26:15.414Z,12.11
2022-09-17T02:28:23.425Z,12.14
2022-09-17T02:30:26.525Z,12.15
2022-09-17T02:32:29.518Z,12.18
2022-09-17T02:34:32.909Z,12.19
2022-09-17T02:36:37.297Z,12.17
2022-09-17T02:38:42.867Z,12.17
2022-09-17T02:40:48.765Z,12.13
2022-09-17T02:43:01.435Z,12.09
2022-09-17T02:45:08.236Z,12.08
2022-09-17T02:47:38.805Z,12.10
2022-09-17T02:49:54.442Z,12.12
2022-09-17T02:52:05.523Z,12.14
2022-09-17T02:54:15.735Z,12.18
2022-09-17T02:56:25.571Z,12.20
2022-09-17T02:58:32.500Z,12.22
2022-09-17T03:00:35.982Z,12.24
2022-09-17T03:02:43.331Z,12.25
2022-09-17T03:04:48.339Z,12.25
2022-09-17T03:06:53.181Z,12.24
2022-09-17T03:08:58.044Z,12.21
2022-09-17T03:11:01.179Z,12.22
2022-09-17T03:13:04.175Z,12.23
2022-09-17T03:15:08.048Z,12.23
2022-09-17T03:17:11.173Z,12.23
2022-09-17T03:19:14.092Z,12.25
2022-09-17T03:21:17.086Z,12.25
2022-09-17T03:23:20.027Z,12.25
2022-09-17T03:25:24.315Z,12.26
2022-09-17T03:27:27.270Z,12.28
2022-09-17T03:29:30.263Z,12.29
2022-09-17T03:31:33.304Z,12.31
2022-09-17T03:33:36.280Z,12.33
2022-09-17T03:35:39.275Z,12.32
2022-09-17T03:37:43.061Z,12.35
2022-09-17T03:39:46.076Z,12.35
2022-09-17T03:41:50.727Z,12.35
2022-09-17T03:43:54.027Z,12.34
2022-09-17T03:45:57.270Z,12.34
2022-09-17T03:48:00.210Z,12.36
2022-09-17T03:50:03.215Z,12.35
2022-09-17T03:52:06.298Z,12.38
2022-09-17T03:54:09.491Z,12.38
2022-09-17T03:56:12.505Z,12.38
2022-09-17T03:58:17.259Z,12.39
2022-09-17T04:00:20.400Z,12.36
2022-09-17T04:02:23.627Z,12.36
2022-09-17T04:04:26.683Z,12.35
2022-09-17T04:06:29.700Z,12.34
2022-09-17T04:08:32.623Z,12.34
2022-09-17T04:10:35.701Z,12.32
2022-09-17T04:12:38.701Z,12.29
2022-09-17T04:14:43.033Z,12.30
2022-09-17T04:16:46.257Z,12.29
2022-09-17T04:18:49.201Z,12.30
2022-09-17T04:20:52.144Z,12.27
2022-09-17T04:22:55.099Z,12.27
2022-09-17T04:24:58.059Z,12.25
2022-09-17T04:27:01.045Z,12.24
2022-09-17T04:29:04.042Z,12.21
2022-09-17T04:31:08.741Z,12.20
2022-09-17T04:33:11.696Z,12.21
2022-09-17T04:35:14.688Z,12.19
2022-09-17T04:37:17.645Z,12.19
2022-09-17T04:39:20.600Z,12.12
2022-09-17T04:41:23.576Z,12.11
2022-09-17T04:43:26.605Z,12.12
2022-09-17T04:45:30.511Z,12.14
2022-09-17T04:47:34.837Z,12.13
2022-09-17T04:49:37.790Z,12.12
2022-09-17T04:51:40.810Z,12.15
2022-09-17T04:53:43.826Z,12.13
2022-09-17T04:55:46.738Z,12.09
2022-09-17T04:57:50.587Z,12.05
2022-09-17T04:59:53.809Z,12.00
2022-09-17T05:01:56.782Z,12.01
2022-09-17T05:04:01.295Z,12.04
2022-09-17T05:06:04.280Z,12.01
2022-09-17T05:08:08.287Z,11.98
2022-09-17T05:10:12.752Z,11.98
2022-09-17T05:12:15.827Z,11.99
2022-09-17T05:14:18.857Z,11.96
2022-09-17T05:16:22.122Z,11.97
2022-09-17T05:18:25.958Z,11.96
2022-09-17T05:20:30.257Z,11.98
2022-09-17T05:22:33.170Z,12.01
2022-09-17T05:24:39.258Z,12.02
2022-09-17T05:26:42.156Z,12.04
2022-09-17T05:28:45.151Z,12.05
2022-09-17T05:30:48.088Z,12.05
2022-09-17T05:32:59.815Z,12.02
2022-09-17T05:35:05.634Z,12.04
2022-09-17T05:37:12.029Z,12.06
2022-09-17T05:39:15.044Z,12.06
2022-09-17T05:41:17.974Z,12.06
2022-09-17T05:43:23.926Z,12.09
2022-09-17T05:45:27.157Z,12.11
2022-09-17T05:47:30.224Z,12.11
2022-09-17T05:49:33.150Z,12.13
2022-09-17T05:51:36.130Z,12.13
2022-09-17T05:53:40.474Z,12.16
2022-09-17T05:55:43.379Z,12.16
2022-09-17T05:57:46.356Z,12.17
2022-09-17T05:59:49.339Z,12.19
2022-09-17T06:01:52.370Z,12.17
2022-09-17T06:03:55.499Z,12.17
2022-09-17T06:06:00.101Z,12.14
2022-09-17T06:08:03.651Z,12.15
2022-09-17T06:10:09.481Z,12.17
2022-09-17T06:12:12.424Z,12.18
2022-09-17T06:14:15.542Z,12.17
2022-09-17T06:16:18.588Z,12.17
2022-09-17T06:18:21.805Z,12.18
2022-09-17T06:20:24.922Z,12.17
2022-09-17T06:22:27.889Z,12.17
2022-09-17T06:24:30.866Z,12.18
2022-09-17T06:26:35.175Z,12.18
2022-09-17T06:28:41.653Z,12.17
2022-09-17T06:30:44.929Z,12.16
2022-09-17T06:32:47.922Z,12.17
2022-09-17T06:34:50.887Z,12.18
2022-09-17T06:36:54.059Z,12.18
2022-09-17T06:38:57.211Z,12.21
2022-09-17T06:41:00.371Z,12.24
2022-09-17T06:43:05.117Z,12.23
2022-09-17T06:45:13.253Z,12.23
2022-09-17T06:47:19.122Z,12.26
2022-09-17T06:49:22.335Z,12.26
2022-09-17T06:51:25.350Z,12.27
2022-09-17T06:53:29.431Z,12.25
2022-09-17T06:55:32.389Z,12.28
2022-09-17T06:57:35.326Z,12.28
2022-09-17T06:59:39.736Z,12.26
2022-09-17T07:01:43.554Z,12.22
2022-09-17T07:03:46.548Z,12.22
2022-09-17T07:05:49.540Z,12.20
2022-09-17T07:07:52.887Z,12.19
2022-09-17T07:09:56.153Z,12.16
2022-09-17T07:11:59.093Z,12.13
2022-09-17T07:14:02.148Z,12.10
2022-09-17T07:16:08.376Z,12.09
2022-09-17T07:18:12.129Z,12.10
2022-09-17T07:20:15.719Z,12.11
2022-09-17T07:22:19.153Z,12.12
2022-09-17T07:24:22.213Z,12.13
2022-09-17T07:26:25.197Z,12.14
2022-09-17T07:28:29.128Z,12.14
2022-09-17T07:30:32.101Z,12.13
2022-09-17T07:32:36.471Z,12.12
2022-09-17T07:34:40.025Z,12.14
2022-09-17T07:36:44.232Z,12.13
2022-09-17T07:38:47.909Z,12.13
2022-09-17T07:40:58.429Z,12.12
2022-09-17T07:43:01.523Z,12.12
2022-09-17T07:45:04.986Z,12.12
2022-09-17T07:47:08.205Z,12.14
2022-09-17T07:49:12.619Z,12.12
2022-09-17T07:51:17.013Z,12.08
2022-09-17T07:53:20.254Z,12.05
2022-09-17T07:55:23.871Z,12.05
2022-09-17T07:57:26.831Z,12.03
2022-09-17T07:59:29.814Z,12.01
2022-09-17T08:01:34.144Z,12.03
2022-09-17T08:03:37.710Z,12.06
2022-09-17T08:05:42.107Z,12.07
2022-09-17T08:07:45.102Z,12.08
2022-09-17T08:09:48.092Z,12.10
2022-09-17T08:11:56.191Z,12.13
2022-09-17T08:13:59.991Z,12.13
2022-09-17T08:16:05.339Z,12.12
2022-09-17T08:18:08.594Z,12.15
2022-09-17T08:20:11.634Z,12.18
2022-09-17T08:22:16.066Z,12.23
2022-09-17T08:24:19.038Z,12.28
2022-09-17T08:26:23.553Z,12.29
2022-09-17T08:28:27.968Z,12.31
2022-09-17T08:30:31.824Z,12.33
2022-09-17T08:32:34.836Z,12.35
2022-09-17T08:34:38.040Z,12.35
2022-09-17T08:36:41.040Z,12.35
2022-09-17T08:38:45.722Z,12.35
2022-09-17T08:40:59.555Z,12.38
2022-09-17T08:43:03.473Z,12.37
2022-09-17T08:45:10.418Z,12.38
2022-09-17T08:47:18.444Z,12.40
2022-09-17T08:49:30.145Z,12.47
2022-09-17T08:51:40.002Z,12.62
2022-09-17T08:53:52.289Z,12.68
2022-09-17T08:56:01.235Z,12.71
2022-09-17T08:58:28.194Z,12.69
2022-09-17T09:00:33.940Z,12.69
2022-09-17T09:03:11.426Z,12.76
2022-09-17T09:05:16.580Z,12.83
2022-09-17T09:07:21.950Z,12.88
2022-09-17T09:09:31.172Z,12.91
2022-09-17T09:11:34.370Z,12.96
2022-09-17T09:13:40.366Z,12.99
2022-09-17T09:15:46.109Z,13.05
2022-09-17T09:17:50.988Z,13.09
2022-09-17T09:19:54.476Z,13.15
2022-09-17T09:22:03.566Z,13.21
2022-09-17T09:24:10.820Z,13.24
2022-09-17T09:26:18.437Z,13.24
2022-09-17T09:28:33.876Z,13.25
2022-09-17T09:30:44.523Z,13.31
2022-09-17T09:32:56.888Z,13.40
2022-09-17T09:35:01.601Z,13.44
2022-09-17T09:37:13.623Z,13.41
2022-09-17T09:39:20.244Z,13.32
2022-09-17T09:41:28.436Z,13.27
2022-09-17T09:44:02.206Z,13.26
2022-09-17T09:46:14.196Z,13.26
2022-09-17T09:48:22.035Z,13.26
2022-09-17T09:51:01.705Z,13.25
2022-09-17T09:53:05.796Z,13.26
2022-09-17T09:55:26.356Z,13.25
2022-09-17T09:57:39.726Z,13.20
2022-09-17T09:59:42.718Z,13.18
2022-09-17T10:01:46.410Z,13.22
2022-09-17T10:03:51.932Z,13.30
2022-09-17T10:05:59.303Z,13.42
2022-09-17T10:08:12.662Z,13.56
2022-09-17T10:10:15.666Z,13.57
2022-09-17T10:12:19.565Z,13.65
2022-09-17T10:14:25.551Z,13.83
2022-09-17T10:16:30.454Z,13.98
2022-09-17T10:18:33.561Z,14.19
2022-09-17T10:20:36.902Z,14.43
2022-09-17T10:22:41.109Z,14.60
2022-09-17T10:24:44.423Z,14.82
2022-09-17T10:26:47.469Z,15.10
2022-09-17T10:28:51.948Z,15.20
2022-09-17T10:31:04.092Z,15.13
2022-09-17T10:33:21.636Z,15.07
2022-09-17T10:35:28.573Z,14.96
2022-09-17T10:37:35.765Z,14.94
2022-09-17T10:39:44.402Z,14.88
2022-09-17T10:41:55.358Z,14.82
2022-09-17T10:43:58.508Z,14.78
2022-09-17T10:46:04.254Z,14.81
2022-09-17T10:48:16.131Z,14.84
2022-09-17T10:50:21.033Z,14.73
2022-09-17T10:52:26.501Z,14.59
2022-09-17T10:54:54.171Z,14.40
2022-09-17T10:56:59.993Z,14.21
2022-09-17T10:59:13.099Z,14.11
2022-09-17T11:01:29.674Z,14.08
2022-09-17T11:04:08.864Z,14.08
2022-09-17T11:06:31.614Z,14.19
2022-09-17T11:08:38.609Z,14.27
2022-09-17T11:10:48.652Z,14.31
2022-09-17T11:13:09.492Z,14.16
2022-09-17T11:15:25.874Z,13.85
2022-09-17T11:17:50.072Z,13.58
2022-09-17T11:20:00.766Z,13.51
2022-09-17T11:22:08.288Z,13.31
2022-09-17T11:24:48.832Z,12.81
2022-09-17T11:26:57.283Z,12.67
2022-09-17T11:29:09.160Z,12.50
2022-09-17T11:31:24.480Z,12.41
2022-09-17T11:33:46.341Z,12.40
2022-09-17T11:35:51.242Z,12.45
2022-09-17T11:38:00.073Z,12.55
2022-09-17T11:40:07.442Z,12.66
2022-09-17T11:42:15.670Z,12.75
2022-09-17T11:44:24.127Z,12.80
2022-09-17T11:46:31.953Z,12.80
2022-09-17T11:48:40.432Z,12.84
2022-09-17T11:50:46.581Z,12.85
2022-09-17T11:53:02.139Z,12.89
2022-09-17T11:55:11.002Z,12.93
2022-09-17T11:57:16.501Z,12.94
2022-09-17T11:59:22.165Z,13.03
2022-09-17T12:01:28.823Z,13.20
2022-09-17T12:03:34.814Z,13.38
2022-09-17T12:05:42.895Z,13.57
2022-09-17T12:07:51.448Z,13.84
2022-09-17T12:09:58.713Z,13.97
2022-09-17T12:12:05.139Z,14.03
2022-09-17T12:14:15.440Z,14.07
2022-09-17T12:16:22.358Z,14.09
2022-09-17T12:18:45.923Z,14.17
2022-09-17T12:20:53.111Z,14.31
2022-09-17T12:22:57.655Z,14.36
2022-09-17T12:25:02.314Z,14.42
2022-09-17T12:27:11.026Z,14.40
2022-09-17T12:29:25.229Z,14.34
2022-09-17T12:31:34.810Z,14.26
2022-09-17T12:33:40.612Z,14.14
2022-09-17T12:36:05.298Z,14.10
2022-09-17T12:38:20.830Z,14.02
2022-09-17T12:40:30.454Z,13.93
2022-09-17T12:42:43.220Z,13.86
2022-09-17T12:45:03.668Z,13.80
2022-09-17T12:47:25.861Z,13.76
2022-09-17T12:49:39.761Z,13.71
2022-09-17T12:51:55.914Z,13.67
2022-09-17T12:54:04.546Z,13.66
2022-09-17T12:56:16.859Z,13.71
2022-09-17T12:58:31.822Z,13.70
2022-09-17T13:00:38.830Z,13.64
2022-09-17T13:02:44.865Z,13.64
2022-09-17T13:05:06.357Z,13.62
2022-09-17T13:07:27.835Z,13.62
2022-09-17T13:09:49.058Z,13.59
2022-09-17T13:12:12.093Z,13.47
2022-09-17T13:14:19.840Z,13.43
2022-09-17T13:16:26.488Z,13.41
2022-09-17T13:18:35.547Z,13.47
2022-09-17T13:20:44.766Z,13.49
2022-09-17T13:22:51.224Z,13.53
2022-09-17T13:25:04.673Z,13.56
2022-09-17T13:27:21.006Z,13.55
2022-09-17T13:29:58.602Z,13.56
2022-09-17T13:32:01.584Z,13.58
2022-09-17T13:34:04.866Z,13.60
2022-09-17T13:36:41.093Z,13.61
2022-09-17T13:38:45.488Z,13.62
2022-09-17T13:40:48.501Z,13.68
2022-09-17T13:42:55.332Z,13.81
2022-09-17T13:45:07.726Z,14.06
2022-09-17T13:47:23.881Z,14.26
2022-09-17T13:49:26.900Z,14.39
2022-09-17T13:51:54.914Z,14.44
2022-09-17T13:54:01.905Z,14.47
2022-09-17T13:56:31.840Z,14.53
2022-09-17T13:58:36.014Z,14.63
2022-09-17T14:00:54.244Z,14.78
2022-09-17T14:03:37.208Z,14.85
2022-09-17T14:05:40.240Z,14.85
2022-09-17T14:07:49.025Z,14.84
2022-09-17T14:09:55.665Z,14.82
2022-09-17T14:11:58.717Z,14.85
2022-09-17T14:14:51.315Z,14.86
2022-09-17T14:16:54.270Z,14.86
2022-09-17T14:18:59.987Z,14.82
2022-09-17T14:21:07.174Z,14.82
2022-09-17T14:23:11.068Z,14.83
2022-09-17T14:25:32.685Z,14.90
2022-09-17T14:27:51.896Z,14.99
2022-09-17T14:30:17.046Z,14.98
2022-09-17T14:32:23.023Z,14.99
2022-09-17T14:34:27.336Z,14.94
2022-09-17T14:36:32.048Z,14.93
2022-09-17T14:38:39.681Z,14.94
2022-09-17T14:40:46.363Z,14.98
2022-09-17T14:42:52.744Z,15.00
2022-09-17T14:44:59.953Z,15.07
2022-09-17T14:47:04.499Z,15.05
2022-09-17T14:49:15.899Z,15.06
2022-09-17T14:51:40.440Z,15.04
2022-09-17T14:53:43.518Z,15.05
2022-09-17T14:55:48.496Z,15.08
2022-09-17T14:57:53.658Z,15.16
2022-09-17T14:59:57.210Z,15.19
2022-09-17T15:02:00.612Z,15.15
2022-09-17T15:04:21.369Z,15.16
2022-09-17T15:06:24.427Z,15.13
2022-09-17T15:08:30.245Z,15.09
2022-09-17T15:10:33.354Z,15.12
2022-09-17T15:12:39.775Z,15.19
2022-09-17T15:14:42.709Z,15.31
2022-09-17T15:16:49.428Z,15.35
2022-09-17T15:18:54.611Z,15.42
2022-09-17T15:20:58.616Z,15.31
2022-09-17T15:23:08.982Z,15.26
2022-09-17T15:25:16.306Z,15.35
2022-09-17T15:27:23.516Z,15.43
2022-09-17T15:29:30.004Z,15.50
2022-09-17T15:31:33.056Z,15.60
2022-09-17T15:33:36.289Z,15.71
2022-09-17T15:35:39.602Z,15.74
2022-09-17T15:37:46.646Z,15.74
2022-09-17T15:39:59.277Z,15.77
2022-09-17T15:42:02.411Z,15.77
2022-09-17T15:44:29.822Z,15.77
2022-09-17T15:46:35.071Z,15.78
2022-09-17T15:48:39.613Z,15.83
2022-09-17T15:50:51.993Z,15.86
2022-09-17T15:53:13.754Z,15.86
2022-09-17T15:55:33.551Z,15.82
2022-09-17T15:57:36.640Z,15.84
2022-09-17T15:59:39.922Z,15.85
2022-09-17T16:01:55.260Z,15.76
2022-09-17T16:04:10.008Z,15.72
2022-09-17T16:06:45.615Z,15.67
2022-09-17T16:08:49.773Z,15.61
2022-09-17T16:10:53.061Z,15.62
2022-09-17T16:12:56.114Z,15.60
2022-09-17T16:15:01.403Z,15.52
2022-09-17T16:17:23.620Z,15.54
2022-09-17T16:19:26.754Z,15.60
2022-09-17T16:21:29.928Z,15.53
2022-09-17T16:23:32.952Z,15.52
2022-09-17T16:25:36.038Z,15.46
2022-09-17T16:27:45.515Z,15.40
2022-09-17T16:29:49.127Z,15.37
2022-09-17T16:31:52.868Z,15.30
2022-09-17T16:33:57.208Z,15.24
2022-09-17T16:36:00.650Z,15.23
2022-09-17T16:38:03.781Z,15.17
2022-09-17T16:40:08.029Z,15.10
2022-09-17T16:42:11.050Z,15.08
2022-09-17T16:44:14.032Z,15.07
2022-09-17T16:46:17.271Z,15.04
2022-09-17T16:48:20.275Z,15.00
2022-09-17T16:50:24.737Z,14.97
2022-09-17T16:52:27.695Z,14.95
2022-09-17T16:54:30.718Z,14.95
2022-09-17T16:56:33.780Z,14.91
2022-09-17T16:58:37.093Z,14.90
2022-09-17T17:00:42.950Z,14.87
2022-09-17T17:02:47.291Z,14.86
2022-09-17T17:04:50.504Z,14.82
2022-09-17T17:06:54.846Z,14.79
2022-09-17T17:09:01.013Z,14.74
2022-09-17T17:11:03.957Z,14.73
2022-09-17T17:13:07.294Z,14.67
2022-09-17T17:15:11.083Z,14.65
2022-09-17T17:17:14.108Z,14.65
2022-09-17T17:19:17.745Z,14.63
2022-09-17T17:21:21.250Z,14.63
2022-09-17T17:23:25.612Z,14.65
2022-09-17T17:25:28.645Z,14.63
2022-09-17T17:27:31.620Z,14.61
2022-09-17T17:29:35.360Z,14.57
2022-09-17T17:31:38.427Z,14.57
2022-09-17T17:33:41.427Z,14.55
2022-09-17T17:35:45.516Z,14.51
2022-09-17T17:37:48.699Z,14.51
2022-09-17T17:39:53.838Z,14.40
2022-09-17T17:41:57.001Z,14.32
2022-09-17T17:43:59.963Z,14.24
2022-09-17T17:46:03.260Z,14.16
2022-09-17T17:48:06.517Z,14.09
2022-09-17T17:50:10.585Z,14.02
2022-09-17T17:52:13.538Z,13.98
2022-09-17T17:54:16.694Z,13.97
2022-09-17T17:56:21.074Z,13.95
2022-09-17T17:58:24.317Z,13.88
2022-09-17T18:00:27.710Z,13.82
2022-09-17T18:02:31.077Z,13.76
2022-09-17T18:04:34.380Z,13.66
2022-09-17T18:06:37.644Z,13.61
2022-09-17T18:08:42.105Z,13.59
2022-09-17T18:10:52.565Z,13.50
2022-09-17T18:12:56.945Z,13.46
2022-09-17T18:15:00.110Z,13.43
2022-09-17T18:17:03.098Z,13.40
2022-09-17T18:19:06.694Z,13.39
2022-09-17T18:21:11.686Z,13.37
2022-09-17T18:23:14.789Z,13.38
2022-09-17T18:25:18.042Z,13.38
2022-09-17T18:27:21.044Z,13.37
2022-09-17T18:29:25.348Z,13.36
2022-09-17T18:31:30.204Z,13.34
2022-09-17T18:33:33.830Z,13.30
2022-09-17T18:35:37.472Z,13.28
2022-09-17T18:37:40.482Z,13.28
2022-09-17T18:39:59.513Z,13.31
2022-09-17T18:42:03.175Z,13.31
2022-09-17T18:44:06.214Z,13.31
2022-09-17T18:46:10.907Z,13.33
2022-09-17T18:48:13.967Z,13.33
2022-09-17T18:50:17.886Z,13.25
2022-09-17T18:52:21.070Z,13.20
2022-09-17T18:54:24.152Z,13.19
2022-09-17T18:56:28.983Z,13.21
2022-09-17T18:58:32.024Z,13.19
2022-09-17T19:00:35.029Z,13.10
2022-09-17T19:02:39.667Z,13.10
2022-09-17T19:04:42.997Z,13.11
2022-09-17T19:06:46.015Z,13.12
2022-09-17T19:08:49.994Z,13.14
2022-09-17T19:10:53.393Z,13.16
2022-09-17T19:12:56.419Z,13.16
2022-09-17T19:14:59.414Z,13.15
2022-09-17T19:17:02.475Z,13.15
2022-09-17T19:19:07.019Z,13.16
2022-09-17T19:21:12.263Z,13.15
2022-09-17T19:23:15.405Z,13.16
2022-09-17T19:25:19.710Z,13.16
2022-09-17T19:27:22.897Z,13.17
2022-09-17T19:29:25.969Z,13.20
2022-09-17T19:31:29.441Z,13.19
2022-09-17T19:33:32.611Z,13.19
2022-09-17T19:35:36.937Z,13.18
2022-09-17T19:37:39.944Z,13.10
2022-09-17T19:39:42.903Z,13.09
2022-09-17T19:41:45.979Z,13.12
2022-09-17T19:43:51.566Z,13.10
2022-09-17T19:46:01.491Z,13.09
2022-09-17T19:48:04.706Z,13.07
2022-09-17T19:50:08.019Z,13.05
2022-09-17T19:52:12.414Z,13.08
2022-09-17T19:54:15.513Z,13.11
2022-09-17T19:56:20.188Z,13.13
2022-09-17T19:58:23.173Z,13.11
2022-09-17T20:00:26.413Z,13.11
2022-09-17T20:02:29.510Z,13.13
2022-09-17T20:04:32.604Z,13.15
2022-09-17T20:06:36.105Z,13.17
2022-09-17T20:08:47.034Z,13.15
2022-09-17T20:10:50.989Z,13.11
2022-09-17T20:12:53.992Z,13.08
2022-09-17T20:14:57.011Z,13.03
2022-09-17T20:17:00.040Z,13.03
2022-09-17T20:19:03.318Z,13.00
2022-09-17T20:21:10.189Z,12.99
2022-09-17T20:23:13.273Z,12.99
2022-09-17T20:25:17.727Z,12.99
2022-09-17T20:27:20.752Z,12.97
2022-09-17T20:29:23.790Z,12.96
2022-09-17T20:31:28.382Z,12.95
2022-09-17T20:33:31.517Z,12.92
2022-09-17T20:35:36.241Z,12.90
2022-09-17T20:40:02.654Z,12.85
2022-09-17T20:42:07.249Z,12.83
2022-09-17T20:44:10.266Z,12.81
2022-09-17T20:46:13.953Z,12.80
2022-09-17T20:48:16.964Z,12.79
2022-09-17T20:50:19.995Z,12.76
2022-09-17T20:52:23.005Z,12.69
2022-09-17T20:54:26.002Z,12.68
2022-09-17T20:56:31.388Z,12.69
2022-09-17T20:58:39.582Z,12.71
2022-09-17T21:00:42.788Z,12.71
2022-09-17T21:02:50.450Z,12.67
2022-09-17T21:04:54.172Z,12.68
2022-09-17T21:06:57.188Z,12.68
2022-09-17T21:09:00.725Z,12.67
2022-09-17T21:11:05.605Z,12.66
2022-09-17T21:13:08.624Z,12.65
2022-09-17T21:15:13.957Z,12.64
2022-09-17T21:17:16.954Z,12.63
2022-09-17T21:19:21.366Z,12.62
2022-09-17T21:21:25.147Z,12.62
2022-09-17T21:23:29.170Z,12.58
2022-09-17T21:25:32.167Z,12.50
2022-09-17T21:27:35.131Z,12.44
2022-09-17T21:29:38.115Z,12.43
2022-09-17T21:31:42.584Z,12.44
2022-09-17T21:33:46.478Z,12.47
2022-09-17T21:35:50.963Z,12.46
2022-09-17T21:37:53.944Z,12.46
2022-09-17T21:39:57.104Z,12.45
2022-09-17T21:42:00.232Z,12.46
2022-09-17T21:44:03.492Z,12.47
2022-09-17T21:46:08.722Z,12.47
2022-09-17T21:48:13.102Z,12.49
2022-09-17T21:50:16.271Z,12.50
2022-09-17T21:52:19.335Z,12.51
2022-09-17T21:54:22.396Z,12.51
2022-09-17T21:56:25.444Z,12.50
2022-09-17T21:58:28.445Z,12.47
2022-09-17T22:00:31.419Z,12.42
2022-09-17T22:02:35.723Z,12.42
2022-09-17T22:04:40.189Z,12.42
2022-09-17T22:06:43.850Z,12.39
2022-09-17T22:08:47.122Z,12.38
2022-09-17T22:10:50.145Z,12.40
2022-09-17T22:12:53.165Z,12.42
2022-09-17T22:14:56.236Z,12.45
2022-09-17T22:16:59.738Z,12.46
2022-09-17T22:19:03.956Z,12.47
2022-09-17T22:21:14.777Z,12.47
2022-09-17T22:23:17.842Z,12.43
2022-09-17T22:25:20.887Z,12.42
2022-09-17T22:27:23.965Z,12.41
2022-09-17T22:29:30.189Z,12.42
2022-09-17T22:31:33.613Z,12.44
2022-09-17T22:33:37.784Z,12.41
2022-09-17T22:35:40.832Z,12.44
2022-09-17T22:37:45.523Z,12.47
2022-09-17T22:39:48.522Z,12.46
2022-09-17T22:41:51.606Z,12.47
2022-09-17T22:43:55.062Z,12.46
2022-09-17T22:45:58.070Z,12.46
2022-09-17T22:48:01.091Z,12.50
2022-09-17T22:50:04.132Z,12.48
2022-09-17T22:52:07.157Z,12.45
2022-09-17T22:54:13.533Z,12.45
2022-09-17T22:56:18.457Z,12.44
2022-09-17T22:58:24.127Z,12.45
2022-09-17T23:00:27.131Z,12.44
2022-09-17T23:02:30.187Z,12.44
2022-09-17T23:04:33.221Z,12.39
2022-09-17T23:06:38.959Z,12.36
2022-09-17T23:08:42.431Z,12.38
2022-09-17T23:10:46.793Z,12.39
2022-09-17T23:12:49.770Z,12.39
2022-09-17T23:14:52.819Z,12.39
2022-09-17T23:16:56.747Z,12.41
2022-09-17T23:18:59.794Z,12.42
2022-09-17T23:21:07.038Z,12.45
2022-09-17T23:23:10.179Z,12.46
2022-09-17T23:25:13.157Z,12.47
2022-09-17T23:27:17.610Z,12.50
2022-09-17T23:29:20.736Z,12.50
2022-09-17T23:31:24.773Z,12.47
2022-09-17T23:33:27.818Z,12.49
2022-09-17T23:35:30.877Z,12.47
2022-09-17T23:37:34.632Z,12.48
2022-09-17T23:39:37.781Z,12.49
2022-09-17T23:41:43.157Z,12.51
2022-09-17T23:43:48.985Z,12.50
2022-09-17T23:45:57.337Z,12.51
2022-09-17T23:48:00.537Z,12.52
2022-09-17T23:50:03.749Z,12.51
2022-09-17T23:52:07.325Z,12.52
2022-09-17T23:54:10.301Z,12.51
2022-09-17T23:56:14.923Z,12.54
2022-09-17T23:58:17.998Z,12.52
